createdAt,value
2022-09-14T00:00:04.099Z,1010.22
2022-09-14T00:00:34.635Z,1010.24
2022-09-14T00:01:24.381Z,1010.26
2022-09-14T00:01:36.070Z,1010.28
2022-09-14T00:02:06.745Z,1010.31
2022-09-14T00:02:37.580Z,1010.32
2022-09-14T00:03:08.474Z,1010.33
2022-09-14T00:03:39.140Z,1010.34
2022-09-14T00:04:09.715Z,1010.36
2022-09-14T00:04:40.244Z,1010.37
2022-09-14T00:05:10.819Z,1010.38
2022-09-14T00:05:41.374Z,1010.40
2022-09-14T00:06:11.948Z,1010.41
2022-09-14T00:06:42.531Z,1010.41
2022-09-14T00:07:13.094Z,1010.41
2022-09-14T00:07:43.659Z,1010.41
2022-09-14T00:08:14.214Z,1010.40
2022-09-14T00:08:44.764Z,1010.40
2022-09-14T00:09:15.371Z,1010.39
2022-09-14T00:09:45.941Z,1010.39
2022-09-14T00:10:16.501Z,1010.38
2022-09-14T00:10:47.087Z,1010.38
2022-09-14T00:11:17.615Z,1010.38
2022-09-14T00:11:48.215Z,1010.38
2022-09-14T00:12:18.789Z,1010.38
2022-09-14T00:12:49.332Z,1010.37
2022-09-14T00:13:19.910Z,1010.37
2022-09-14T00:13:50.491Z,1010.36
2022-09-14T00:14:21.095Z,1010.35
2022-09-14T00:14:51.621Z,1010.34
2022-09-14T00:15:22.201Z,1010.33
2022-09-14T00:15:53.200Z,1010.32
2022-09-14T00:16:23.795Z,1010.32
2022-09-14T00:16:54.415Z,1010.32
2022-09-14T00:17:25.004Z,1010.33
2022-09-14T00:17:56.194Z,1010.34
2022-09-14T00:18:26.219Z,1010.34
2022-09-14T00:18:56.765Z,1010.33
2022-09-14T00:19:27.341Z,1010.31
2022-09-14T00:19:57.901Z,1010.30
2022-09-14T00:20:28.472Z,1010.29
2022-09-14T00:20:59.046Z,1010.29
2022-09-14T00:21:29.630Z,1010.29
2022-09-14T00:22:00.165Z,1010.28
2022-09-14T00:22:30.700Z,1010.27
2022-09-14T00:23:01.294Z,1010.26
2022-09-14T00:23:31.854Z,1010.25
2022-09-14T00:24:02.431Z,1010.23
2022-09-14T00:24:33.008Z,1010.23
2022-09-14T00:25:03.574Z,1010.21
2022-09-14T00:25:34.122Z,1010.20
2022-09-14T00:26:04.672Z,1010.18
2022-09-14T00:26:35.246Z,1010.17
2022-09-14T00:27:05.804Z,1010.16
2022-09-14T00:27:36.361Z,1010.15
2022-09-14T00:28:06.937Z,1010.14
2022-09-14T00:28:37.515Z,1010.14
2022-09-14T00:29:08.123Z,1010.14
2022-09-14T00:29:38.710Z,1010.13
2022-09-14T00:30:09.241Z,1010.12
2022-09-14T00:30:39.798Z,1010.12
2022-09-14T00:31:10.381Z,1010.12
2022-09-14T00:31:40.995Z,1010.11
2022-09-14T00:32:11.659Z,1010.11
2022-09-14T00:32:42.211Z,1010.11
2022-09-14T00:33:12.798Z,1010.11
2022-09-14T00:33:43.360Z,1010.10
2022-09-14T00:34:13.930Z,1010.10
2022-09-14T00:34:44.460Z,1010.11
2022-09-14T00:35:15.031Z,1010.11
2022-09-14T00:35:45.634Z,1010.11
2022-09-14T00:36:16.218Z,1010.11
2022-09-14T00:36:46.798Z,1010.11
2022-09-14T00:37:17.349Z,1010.10
2022-09-14T00:37:47.925Z,1010.08
2022-09-14T00:38:18.499Z,1010.07
2022-09-14T00:38:49.033Z,1010.05
2022-09-14T00:39:19.578Z,1010.03
2022-09-14T00:39:50.194Z,1010.01
2022-09-14T00:40:20.861Z,1010.00
2022-09-14T00:40:51.508Z,1009.98
2022-09-14T00:41:22.078Z,1009.97
2022-09-14T00:41:52.635Z,1009.95
2022-09-14T00:42:23.203Z,1009.92
2022-09-14T00:42:53.807Z,1009.91
2022-09-14T00:43:24.379Z,1009.89
2022-09-14T00:43:54.976Z,1009.88
2022-09-14T00:44:25.541Z,1009.86
2022-09-14T00:44:56.229Z,1009.85
2022-09-14T00:45:26.823Z,1009.84
2022-09-14T00:45:57.435Z,1009.83
2022-09-14T00:46:28.017Z,1009.82
2022-09-14T00:46:58.544Z,1009.80
2022-09-14T00:47:29.115Z,1009.78
2022-09-14T00:47:59.695Z,1009.76
2022-09-14T00:48:30.283Z,1009.73
2022-09-14T00:49:00.851Z,1009.71
2022-09-14T00:49:31.454Z,1009.68
2022-09-14T00:50:02.009Z,1009.65
2022-09-14T00:50:32.583Z,1009.64
2022-09-14T00:51:03.147Z,1009.64
2022-09-14T00:51:33.724Z,1009.64
2022-09-14T00:52:04.299Z,1009.66
2022-09-14T00:52:34.856Z,1009.68
2022-09-14T00:53:05.415Z,1009.71
2022-09-14T00:53:35.932Z,1009.73
2022-09-14T00:54:06.515Z,1009.75
2022-09-14T00:54:37.081Z,1009.78
2022-09-14T00:55:07.663Z,1009.78
2022-09-14T00:55:38.207Z,1009.78
2022-09-14T00:56:08.727Z,1009.76
2022-09-14T00:56:39.368Z,1009.73
2022-09-14T00:57:09.920Z,1009.70
2022-09-14T00:57:40.501Z,1009.68
2022-09-14T00:58:11.081Z,1009.65
2022-09-14T00:58:41.672Z,1009.63
2022-09-14T00:59:12.240Z,1009.62
2022-09-14T00:59:42.812Z,1009.62
2022-09-14T01:00:13.478Z,1009.62
2022-09-14T01:00:44.074Z,1009.63
2022-09-14T01:01:14.719Z,1009.64
2022-09-14T01:01:45.406Z,1009.65
2022-09-14T01:02:16.067Z,1009.65
2022-09-14T01:02:46.805Z,1009.65
2022-09-14T01:03:17.361Z,1009.65
2022-09-14T01:03:47.948Z,1009.65
2022-09-14T01:04:18.524Z,1009.67
2022-09-14T01:04:49.065Z,1009.68
2022-09-14T01:05:19.646Z,1009.68
2022-09-14T01:05:50.212Z,1009.68
2022-09-14T01:06:20.785Z,1009.67
2022-09-14T01:06:51.335Z,1009.67
2022-09-14T01:07:21.879Z,1009.66
2022-09-14T01:07:52.445Z,1009.66
2022-09-14T01:08:23.015Z,1009.65
2022-09-14T01:08:53.589Z,1009.64
2022-09-14T01:09:24.160Z,1009.62
2022-09-14T01:09:54.745Z,1009.60
2022-09-14T01:10:25.308Z,1009.58
2022-09-14T01:10:55.890Z,1009.56
2022-09-14T01:11:26.459Z,1009.55
2022-09-14T01:11:57.002Z,1009.53
2022-09-14T01:12:27.544Z,1009.53
2022-09-14T01:12:58.108Z,1009.53
2022-09-14T01:13:28.660Z,1009.52
2022-09-14T01:13:59.234Z,1009.52
2022-09-14T01:14:29.762Z,1009.52
2022-09-14T01:15:00.293Z,1009.51
2022-09-14T01:15:30.866Z,1009.51
2022-09-14T01:16:01.460Z,1009.51
2022-09-14T01:16:32.093Z,1009.51
2022-09-14T01:17:02.678Z,1009.51
2022-09-14T01:17:33.256Z,1009.51
2022-09-14T01:18:03.799Z,1009.51
2022-09-14T01:18:34.326Z,1009.51
2022-09-14T01:19:04.893Z,1009.52
2022-09-14T01:19:35.438Z,1009.52
2022-09-14T01:20:06.011Z,1009.53
2022-09-14T01:20:36.580Z,1009.55
2022-09-14T01:21:07.137Z,1009.56
2022-09-14T01:21:37.725Z,1009.55
2022-09-14T01:22:08.303Z,1009.53
2022-09-14T01:22:38.842Z,1009.51
2022-09-14T01:23:09.401Z,1009.50
2022-09-14T01:23:39.968Z,1009.50
2022-09-14T01:24:10.534Z,1009.51
2022-09-14T01:24:41.080Z,1009.52
2022-09-14T01:25:11.629Z,1009.52
2022-09-14T01:25:42.230Z,1009.53
2022-09-14T01:26:12.765Z,1009.53
2022-09-14T01:26:43.322Z,1009.53
2022-09-14T01:27:13.898Z,1009.52
2022-09-14T01:27:44.432Z,1009.51
2022-09-14T01:28:15.017Z,1009.49
2022-09-14T01:28:45.572Z,1009.47
2022-09-14T01:29:16.114Z,1009.47
2022-09-14T01:29:46.691Z,1009.47
2022-09-14T01:30:17.240Z,1009.47
2022-09-14T01:30:47.913Z,1009.46
2022-09-14T01:31:18.527Z,1009.46
2022-09-14T01:31:49.194Z,1009.46
2022-09-14T01:32:19.772Z,1009.44
2022-09-14T01:32:50.352Z,1009.41
2022-09-14T01:33:20.918Z,1009.42
2022-09-14T01:33:51.471Z,1009.43
2022-09-14T01:34:22.038Z,1009.44
2022-09-14T01:34:52.584Z,1009.43
2022-09-14T01:35:23.112Z,1009.43
2022-09-14T01:35:53.695Z,1009.44
2022-09-14T01:36:24.242Z,1009.45
2022-09-14T01:36:54.784Z,1009.47
2022-09-14T01:37:25.316Z,1009.47
2022-09-14T01:37:55.876Z,1009.47
2022-09-14T01:38:26.421Z,1009.46
2022-09-14T01:38:56.996Z,1009.44
2022-09-14T01:39:27.564Z,1009.44
2022-09-14T01:39:58.213Z,1009.44
2022-09-14T01:40:28.874Z,1009.44
2022-09-14T01:41:00.491Z,1009.43
2022-09-14T01:41:29.998Z,1009.41
2022-09-14T01:42:00.564Z,1009.40
2022-09-14T01:42:31.139Z,1009.39
2022-09-14T01:43:01.678Z,1009.38
2022-09-14T01:43:36.169Z,1009.37
2022-09-14T01:44:03.109Z,1009.37
2022-09-14T01:44:33.664Z,1009.36
2022-09-14T01:45:04.255Z,1009.37
2022-09-14T01:45:34.974Z,1009.38
2022-09-14T01:46:05.872Z,1009.38
2022-09-14T01:46:36.474Z,1009.37
2022-09-14T01:47:07.029Z,1009.36
2022-09-14T01:47:37.615Z,1009.36
2022-09-14T01:48:08.179Z,1009.36
2022-09-14T01:48:38.795Z,1009.35
2022-09-14T01:49:09.358Z,1009.35
2022-09-14T01:49:39.925Z,1009.34
2022-09-14T01:50:10.517Z,1009.33
2022-09-14T01:50:41.065Z,1009.35
2022-09-14T01:51:11.632Z,1009.36
2022-09-14T01:51:42.174Z,1009.37
2022-09-14T01:52:12.727Z,1009.37
2022-09-14T01:52:43.292Z,1009.37
2022-09-14T01:53:13.879Z,1009.37
2022-09-14T01:53:44.429Z,1009.37
2022-09-14T01:54:14.997Z,1009.36
2022-09-14T01:54:45.554Z,1009.34
2022-09-14T01:55:16.136Z,1009.33
2022-09-14T01:55:46.695Z,1009.31
2022-09-14T01:56:17.256Z,1009.30
2022-09-14T01:56:47.809Z,1009.29
2022-09-14T01:57:18.362Z,1009.29
2022-09-14T01:57:48.928Z,1009.28
2022-09-14T01:58:19.469Z,1009.27
2022-09-14T01:58:50.021Z,1009.27
2022-09-14T01:59:20.591Z,1009.27
2022-09-14T01:59:51.162Z,1009.28
2022-09-14T02:00:21.740Z,1009.28
2022-09-14T02:00:52.312Z,1009.28
2022-09-14T02:01:23.023Z,1009.29
2022-09-14T02:01:53.706Z,1009.29
2022-09-14T02:02:24.514Z,1009.30
2022-09-14T02:02:55.168Z,1009.29
2022-09-14T02:03:25.912Z,1009.27
2022-09-14T02:03:56.661Z,1009.26
2022-09-14T02:04:27.289Z,1009.25
2022-09-14T02:04:57.849Z,1009.24
2022-09-14T02:05:28.419Z,1009.22
2022-09-14T02:05:59.003Z,1009.20
2022-09-14T02:06:29.562Z,1009.18
2022-09-14T02:07:00.102Z,1009.17
2022-09-14T02:07:30.661Z,1009.16
2022-09-14T02:08:01.228Z,1009.15
2022-09-14T02:08:31.755Z,1009.15
2022-09-14T02:09:02.340Z,1009.16
2022-09-14T02:09:32.919Z,1009.16
2022-09-14T02:10:03.490Z,1009.16
2022-09-14T02:10:34.061Z,1009.16
2022-09-14T02:11:04.614Z,1009.15
2022-09-14T02:11:35.144Z,1009.14
2022-09-14T02:12:05.703Z,1009.13
2022-09-14T02:12:36.308Z,1009.12
2022-09-14T02:13:06.871Z,1009.12
2022-09-14T02:13:37.440Z,1009.12
2022-09-14T02:14:08.011Z,1009.12
2022-09-14T02:14:38.592Z,1009.10
2022-09-14T02:15:09.156Z,1009.09
2022-09-14T02:15:39.731Z,1009.08
2022-09-14T02:16:10.342Z,1009.08
2022-09-14T02:16:41.072Z,1009.09
2022-09-14T02:17:11.661Z,1009.10
2022-09-14T02:17:42.224Z,1009.08
2022-09-14T02:18:12.836Z,1009.06
2022-09-14T02:18:43.399Z,1009.05
2022-09-14T02:19:13.967Z,1009.04
2022-09-14T02:19:44.512Z,1009.04
2022-09-14T02:20:15.058Z,1009.03
2022-09-14T02:20:45.605Z,1009.03
2022-09-14T02:21:16.155Z,1009.03
2022-09-14T02:21:46.736Z,1009.02
2022-09-14T02:22:17.291Z,1009.03
2022-09-14T02:22:47.849Z,1009.03
2022-09-14T02:23:18.409Z,1009.04
2022-09-14T02:23:48.998Z,1009.05
2022-09-14T02:24:19.554Z,1009.06
2022-09-14T02:24:50.129Z,1009.06
2022-09-14T02:25:20.655Z,1009.05
2022-09-14T02:25:51.234Z,1009.05
2022-09-14T02:26:21.774Z,1009.04
2022-09-14T02:26:52.312Z,1009.02
2022-09-14T02:27:22.898Z,1009.02
2022-09-14T02:27:53.472Z,1009.01
2022-09-14T02:28:24.029Z,1008.99
2022-09-14T02:28:54.610Z,1008.98
2022-09-14T02:29:25.180Z,1008.98
2022-09-14T02:29:55.759Z,1008.97
2022-09-14T02:30:26.326Z,1008.96
2022-09-14T02:30:56.917Z,1008.96
2022-09-14T02:31:27.538Z,1008.96
2022-09-14T02:31:58.206Z,1008.97
2022-09-14T02:32:28.789Z,1008.98
2022-09-14T02:32:59.361Z,1008.98
2022-09-14T02:33:29.922Z,1008.99
2022-09-14T02:34:00.487Z,1008.97
2022-09-14T02:34:31.041Z,1008.94
2022-09-14T02:35:01.606Z,1008.92
2022-09-14T02:35:32.174Z,1008.92
2022-09-14T02:36:02.740Z,1008.93
2022-09-14T02:36:33.321Z,1008.94
2022-09-14T02:37:03.846Z,1008.94
2022-09-14T02:37:34.423Z,1008.91
2022-09-14T02:38:05.004Z,1008.87
2022-09-14T02:38:35.546Z,1008.84
2022-09-14T02:39:06.120Z,1008.81
2022-09-14T02:39:36.657Z,1008.78
2022-09-14T02:40:07.346Z,1008.76
2022-09-14T02:40:37.913Z,1008.75
2022-09-14T02:41:08.463Z,1008.76
2022-09-14T02:41:39.030Z,1008.77
2022-09-14T02:42:09.602Z,1008.76
2022-09-14T02:42:40.174Z,1008.75
2022-09-14T02:43:10.719Z,1008.72
2022-09-14T02:43:41.296Z,1008.70
2022-09-14T02:44:11.877Z,1008.70
2022-09-14T02:44:42.423Z,1008.69
2022-09-14T02:45:13.014Z,1008.68
2022-09-14T02:45:43.563Z,1008.66
2022-09-14T02:46:14.219Z,1008.65
2022-09-14T02:46:44.803Z,1008.63
2022-09-14T02:47:15.381Z,1008.61
2022-09-14T02:47:45.932Z,1008.58
2022-09-14T02:48:16.504Z,1008.57
2022-09-14T02:48:47.082Z,1008.57
2022-09-14T02:49:17.626Z,1008.59
2022-09-14T02:49:48.168Z,1008.64
2022-09-14T02:50:18.717Z,1008.65
2022-09-14T02:50:49.259Z,1008.66
2022-09-14T02:51:19.868Z,1008.66
2022-09-14T02:51:50.448Z,1008.65
2022-09-14T02:52:21.000Z,1008.65
2022-09-14T02:52:51.538Z,1008.64
2022-09-14T02:53:22.066Z,1008.62
2022-09-14T02:53:52.587Z,1008.60
2022-09-14T02:54:23.160Z,1008.59
2022-09-14T02:54:53.719Z,1008.57
2022-09-14T02:55:24.277Z,1008.55
2022-09-14T02:55:54.836Z,1008.56
2022-09-14T02:56:25.384Z,1008.58
2022-09-14T02:56:55.943Z,1008.59
2022-09-14T02:57:26.510Z,1008.57
2022-09-14T02:57:57.069Z,1008.55
2022-09-14T02:58:27.618Z,1008.53
2022-09-14T02:58:58.186Z,1008.51
2022-09-14T02:59:28.731Z,1008.51
2022-09-14T02:59:59.312Z,1008.51
2022-09-14T03:00:29.952Z,1008.51
2022-09-14T03:01:00.633Z,1008.49
2022-09-14T03:01:31.226Z,1008.46
2022-09-14T03:02:01.907Z,1008.45
2022-09-14T03:02:32.673Z,1008.46
2022-09-14T03:03:03.207Z,1008.47
2022-09-14T03:03:35.751Z,1008.49
2022-09-14T03:04:04.467Z,1008.50
2022-09-14T03:04:35.029Z,1008.52
2022-09-14T03:05:05.591Z,1008.54
2022-09-14T03:05:36.181Z,1008.56
2022-09-14T03:06:06.760Z,1008.57
2022-09-14T03:06:37.350Z,1008.56
2022-09-14T03:07:07.891Z,1008.56
2022-09-14T03:07:38.467Z,1008.57
2022-09-14T03:08:09.077Z,1008.55
2022-09-14T03:08:39.681Z,1008.54
2022-09-14T03:09:10.281Z,1008.54
2022-09-14T03:09:40.867Z,1008.53
2022-09-14T03:10:11.421Z,1008.52
2022-09-14T03:10:41.992Z,1008.51
2022-09-14T03:11:12.558Z,1008.51
2022-09-14T03:11:43.100Z,1008.51
2022-09-14T03:12:13.670Z,1008.49
2022-09-14T03:12:44.228Z,1008.50
2022-09-14T03:13:14.766Z,1008.50
2022-09-14T03:13:45.322Z,1008.48
2022-09-14T03:14:15.885Z,1008.47
2022-09-14T03:14:46.439Z,1008.45
2022-09-14T03:15:17.020Z,1008.44
2022-09-14T03:15:47.635Z,1008.46
2022-09-14T03:16:18.303Z,1008.47
2022-09-14T03:16:48.868Z,1008.46
2022-09-14T03:17:19.398Z,1008.45
2022-09-14T03:17:49.971Z,1008.45
2022-09-14T03:18:20.500Z,1008.43
2022-09-14T03:18:51.076Z,1008.43
2022-09-14T03:19:21.645Z,1008.44
2022-09-14T03:19:52.210Z,1008.47
2022-09-14T03:20:22.772Z,1008.49
2022-09-14T03:20:53.359Z,1008.50
2022-09-14T03:21:23.890Z,1008.50
2022-09-14T03:21:54.435Z,1008.49
2022-09-14T03:22:25.017Z,1008.49
2022-09-14T03:22:55.591Z,1008.49
2022-09-14T03:23:26.178Z,1008.51
2022-09-14T03:23:56.743Z,1008.51
2022-09-14T03:24:27.289Z,1008.51
2022-09-14T03:24:57.843Z,1008.53
2022-09-14T03:25:28.425Z,1008.53
2022-09-14T03:25:58.963Z,1008.53
2022-09-14T03:26:29.517Z,1008.53
2022-09-14T03:27:00.067Z,1008.53
2022-09-14T03:27:30.613Z,1008.51
2022-09-14T03:28:01.149Z,1008.50
2022-09-14T03:28:31.728Z,1008.46
2022-09-14T03:29:02.296Z,1008.44
2022-09-14T03:29:32.821Z,1008.46
2022-09-14T03:30:03.365Z,1008.45
2022-09-14T03:30:33.901Z,1008.43
2022-09-14T03:31:04.539Z,1008.42
2022-09-14T03:31:35.120Z,1008.44
2022-09-14T03:32:05.671Z,1008.44
2022-09-14T03:32:36.241Z,1008.43
2022-09-14T03:33:06.896Z,1008.43
2022-09-14T03:33:37.424Z,1008.40
2022-09-14T03:34:08.007Z,1008.39
2022-09-14T03:34:38.581Z,1008.41
2022-09-14T03:35:09.102Z,1008.40
2022-09-14T03:35:39.648Z,1008.40
2022-09-14T03:36:10.198Z,1008.39
2022-09-14T03:36:40.770Z,1008.36
2022-09-14T03:37:11.299Z,1008.35
2022-09-14T03:37:41.877Z,1008.38
2022-09-14T03:38:12.443Z,1008.39
2022-09-14T03:38:43.012Z,1008.38
2022-09-14T03:39:13.539Z,1008.37
2022-09-14T03:39:44.113Z,1008.39
2022-09-14T03:40:19.313Z,1008.38
2022-09-14T03:40:45.464Z,1008.40
2022-09-14T03:41:16.065Z,1008.42
2022-09-14T03:41:46.639Z,1008.41
2022-09-14T03:42:17.181Z,1008.42
2022-09-14T03:42:47.708Z,1008.43
2022-09-14T03:43:18.268Z,1008.42
2022-09-14T03:43:48.834Z,1008.42
2022-09-14T03:44:19.413Z,1008.42
2022-09-14T03:44:50.000Z,1008.42
2022-09-14T03:45:20.583Z,1008.42
2022-09-14T03:45:51.168Z,1008.42
2022-09-14T03:46:21.806Z,1008.41
2022-09-14T03:46:52.409Z,1008.43
2022-09-14T03:47:22.951Z,1008.43
2022-09-14T03:47:53.502Z,1008.43
2022-09-14T03:48:24.103Z,1008.44
2022-09-14T03:48:54.663Z,1008.43
2022-09-14T03:49:25.216Z,1008.43
2022-09-14T03:49:55.774Z,1008.43
2022-09-14T03:50:26.350Z,1008.42
2022-09-14T03:50:56.930Z,1008.42
2022-09-14T03:51:27.478Z,1008.44
2022-09-14T03:51:59.893Z,1008.43
2022-09-14T03:52:28.980Z,1008.42
2022-09-14T03:52:59.514Z,1008.41
2022-09-14T03:53:30.080Z,1008.41
2022-09-14T03:54:00.658Z,1008.42
2022-09-14T03:54:31.223Z,1008.44
2022-09-14T03:55:01.795Z,1008.47
2022-09-14T03:55:32.343Z,1008.50
2022-09-14T03:56:02.906Z,1008.54
2022-09-14T03:56:33.468Z,1008.58
2022-09-14T03:57:04.071Z,1008.61
2022-09-14T03:57:34.659Z,1008.63
2022-09-14T03:58:05.198Z,1008.64
2022-09-14T03:58:35.784Z,1008.64
2022-09-14T03:59:06.340Z,1008.61
2022-09-14T03:59:39.441Z,1008.60
2022-09-14T04:00:07.694Z,1008.60
2022-09-14T04:00:38.256Z,1008.58
2022-09-14T04:01:08.844Z,1008.58
2022-09-14T04:01:39.521Z,1008.60
2022-09-14T04:02:10.194Z,1008.60
2022-09-14T04:02:40.945Z,1008.60
2022-09-14T04:03:11.632Z,1008.59
2022-09-14T04:03:42.332Z,1008.58
2022-09-14T04:04:12.853Z,1008.59
2022-09-14T04:04:43.412Z,1008.58
2022-09-14T04:05:13.979Z,1008.55
2022-09-14T04:05:44.514Z,1008.51
2022-09-14T04:06:15.095Z,1008.48
2022-09-14T04:06:45.644Z,1008.47
2022-09-14T04:07:16.203Z,1008.48
2022-09-14T04:07:46.780Z,1008.49
2022-09-14T04:08:17.339Z,1008.48
2022-09-14T04:08:48.087Z,1008.45
2022-09-14T04:09:18.732Z,1008.44
2022-09-14T04:09:49.302Z,1008.41
2022-09-14T04:10:19.892Z,1008.39
2022-09-14T04:10:50.455Z,1008.36
2022-09-14T04:11:21.007Z,1008.35
2022-09-14T04:11:51.570Z,1008.34
2022-09-14T04:12:22.112Z,1008.34
2022-09-14T04:12:52.689Z,1008.33
2022-09-14T04:13:23.290Z,1008.34
2022-09-14T04:13:53.833Z,1008.34
2022-09-14T04:14:24.407Z,1008.33
2022-09-14T04:14:54.978Z,1008.33
2022-09-14T04:15:25.525Z,1008.33
2022-09-14T04:15:56.095Z,1008.32
2022-09-14T04:16:26.706Z,1008.32
2022-09-14T04:16:57.270Z,1008.32
2022-09-14T04:17:27.799Z,1008.31
2022-09-14T04:17:58.355Z,1008.30
2022-09-14T04:18:28.919Z,1008.31
2022-09-14T04:18:59.598Z,1008.32
2022-09-14T04:19:30.130Z,1008.34
2022-09-14T04:20:00.683Z,1008.35
2022-09-14T04:20:31.269Z,1008.34
2022-09-14T04:21:07.213Z,1008.33
2022-09-14T04:21:32.635Z,1008.30
2022-09-14T04:22:03.202Z,1008.27
2022-09-14T04:22:33.771Z,1008.25
2022-09-14T04:23:04.336Z,1008.23
2022-09-14T04:23:42.265Z,1008.24
2022-09-14T04:24:21.482Z,1008.24
2022-09-14T04:24:36.485Z,1008.25
2022-09-14T04:25:07.074Z,1008.27
2022-09-14T04:25:37.618Z,1008.27
2022-09-14T04:26:08.191Z,1008.28
2022-09-14T04:26:38.745Z,1008.30
2022-09-14T04:27:09.302Z,1008.30
2022-09-14T04:27:39.904Z,1008.29
2022-09-14T04:28:20.235Z,1008.29
2022-09-14T04:28:41.266Z,1008.30
2022-09-14T04:29:11.801Z,1008.31
2022-09-14T04:29:42.369Z,1008.30
2022-09-14T04:30:12.949Z,1008.31
2022-09-14T04:30:43.525Z,1008.30
2022-09-14T04:31:14.142Z,1008.31
2022-09-14T04:31:44.815Z,1008.31
2022-09-14T04:32:43.774Z,1008.33
2022-09-14T04:32:46.314Z,1008.35
2022-09-14T04:33:16.856Z,1008.36
2022-09-14T04:33:47.569Z,1008.37
2022-09-14T04:34:18.139Z,1008.39
2022-09-14T04:34:48.702Z,1008.42
2022-09-14T04:35:19.298Z,1008.45
2022-09-14T04:35:49.840Z,1008.46
2022-09-14T04:36:20.346Z,1008.47
2022-09-14T04:36:51.370Z,1008.46
2022-09-14T04:37:22.404Z,1008.45
2022-09-14T04:37:53.462Z,1008.43
2022-09-14T04:38:23.988Z,1008.42
2022-09-14T04:38:54.502Z,1008.41
2022-09-14T04:39:25.574Z,1008.41
2022-09-14T04:39:56.242Z,1008.41
2022-09-14T04:40:26.864Z,1008.41
2022-09-14T04:40:57.394Z,1008.42
2022-09-14T04:41:28.407Z,1008.43
2022-09-14T04:41:59.418Z,1008.44
2022-09-14T04:42:29.959Z,1008.43
2022-09-14T04:43:01.008Z,1008.43
2022-09-14T04:43:31.509Z,1008.42
2022-09-14T04:44:02.031Z,1008.42
2022-09-14T04:44:33.074Z,1008.42
2022-09-14T04:45:03.593Z,1008.43
2022-09-14T04:45:34.596Z,1008.45
2022-09-14T04:46:05.633Z,1008.46
2022-09-14T04:46:36.265Z,1008.47
2022-09-14T04:47:06.821Z,1008.48
2022-09-14T04:47:37.862Z,1008.51
2022-09-14T04:48:08.894Z,1008.55
2022-09-14T04:48:39.937Z,1008.54
2022-09-14T04:49:10.418Z,1008.52
2022-09-14T04:49:41.454Z,1008.53
2022-09-14T04:50:12.453Z,1008.54
2022-09-14T04:50:43.481Z,1008.54
2022-09-14T04:51:13.996Z,1008.54
2022-09-14T04:51:44.533Z,1008.54
2022-09-14T04:52:15.056Z,1008.55
2022-09-14T04:52:46.097Z,1008.59
2022-09-14T04:53:16.608Z,1008.61
2022-09-14T04:53:47.613Z,1008.62
2022-09-14T04:54:18.637Z,1008.64
2022-09-14T04:54:49.159Z,1008.67
2022-09-14T04:55:19.690Z,1008.69
2022-09-14T04:55:50.206Z,1008.69
2022-09-14T04:56:21.237Z,1008.70
2022-09-14T04:56:52.264Z,1008.70
2022-09-14T04:57:23.297Z,1008.69
2022-09-14T04:57:53.822Z,1008.67
2022-09-14T04:58:24.855Z,1008.64
2022-09-14T04:58:55.391Z,1008.61
2022-09-14T04:59:25.917Z,1008.59
2022-09-14T04:59:56.436Z,1008.58
2022-09-14T05:00:27.442Z,1008.54
2022-09-14T05:00:57.960Z,1008.50
2022-09-14T05:01:28.564Z,1008.48
2022-09-14T05:01:59.270Z,1008.48
2022-09-14T05:02:29.834Z,1008.48
2022-09-14T05:03:00.442Z,1008.47
2022-09-14T05:03:30.964Z,1008.47
2022-09-14T05:04:01.507Z,1008.49
2022-09-14T05:04:32.521Z,1008.50
2022-09-14T05:05:03.698Z,1008.51
2022-09-14T05:05:34.172Z,1008.50
2022-09-14T05:06:05.170Z,1008.48
2022-09-14T05:06:35.692Z,1008.48
2022-09-14T05:07:06.757Z,1008.46
2022-09-14T05:07:37.247Z,1008.44
2022-09-14T05:08:08.286Z,1008.44
2022-09-14T05:08:38.790Z,1008.43
2022-09-14T05:09:09.825Z,1008.42
2022-09-14T05:09:40.851Z,1008.42
2022-09-14T05:10:11.888Z,1008.41
2022-09-14T05:10:42.945Z,1008.42
2022-09-14T05:11:13.472Z,1008.43
2022-09-14T05:11:44.003Z,1008.43
2022-09-14T05:12:14.544Z,1008.42
2022-09-14T05:12:45.585Z,1008.41
2022-09-14T05:13:16.593Z,1008.43
2022-09-14T05:13:50.013Z,1008.43
2022-09-14T05:14:18.310Z,1008.42
2022-09-14T05:14:49.320Z,1008.40
2022-09-14T05:15:20.354Z,1008.39
2022-09-14T05:15:51.469Z,1008.39
2022-09-14T05:16:22.085Z,1008.39
2022-09-14T05:16:52.600Z,1008.40
2022-09-14T05:17:23.116Z,1008.40
2022-09-14T05:17:54.153Z,1008.39
2022-09-14T05:18:25.180Z,1008.39
2022-09-14T05:18:55.710Z,1008.38
2022-09-14T05:19:26.736Z,1008.37
2022-09-14T05:19:57.775Z,1008.34
2022-09-14T05:20:28.440Z,1008.33
2022-09-14T05:20:58.920Z,1008.31
2022-09-14T05:21:29.941Z,1008.28
2022-09-14T05:22:00.472Z,1008.27
2022-09-14T05:22:31.468Z,1008.27
2022-09-14T05:23:02.516Z,1008.25
2022-09-14T05:23:33.510Z,1008.24
2022-09-14T05:24:04.531Z,1008.23
2022-09-14T05:24:35.583Z,1008.24
2022-09-14T05:25:06.107Z,1008.24
2022-09-14T05:25:37.108Z,1008.25
2022-09-14T05:26:08.149Z,1008.25
2022-09-14T05:26:38.673Z,1008.26
2022-09-14T05:27:09.692Z,1008.26
2022-09-14T05:27:40.732Z,1008.25
2022-09-14T05:28:11.778Z,1008.26
2022-09-14T05:28:42.298Z,1008.26
2022-09-14T05:29:13.344Z,1008.26
2022-09-14T05:29:44.340Z,1008.27
2022-09-14T05:30:15.363Z,1008.29
2022-09-14T05:30:46.419Z,1008.30
2022-09-14T05:31:17.471Z,1008.32
2022-09-14T05:31:47.983Z,1008.33
2022-09-14T05:32:18.996Z,1008.34
2022-09-14T05:32:50.038Z,1008.34
2022-09-14T05:33:21.054Z,1008.35
2022-09-14T05:33:52.067Z,1008.35
2022-09-14T05:34:23.106Z,1008.36
2022-09-14T05:34:53.614Z,1008.35
2022-09-14T05:35:24.652Z,1008.35
2022-09-14T05:35:55.819Z,1008.35
2022-09-14T05:36:26.296Z,1008.35
2022-09-14T05:36:57.334Z,1008.35
2022-09-14T05:37:28.358Z,1008.33
2022-09-14T05:37:58.890Z,1008.33
2022-09-14T05:38:29.411Z,1008.32
2022-09-14T05:39:00.428Z,1008.31
2022-09-14T05:39:30.941Z,1008.32
2022-09-14T05:40:02.045Z,1008.32
2022-09-14T05:40:32.774Z,1008.32
2022-09-14T05:41:03.391Z,1008.33
2022-09-14T05:41:33.909Z,1008.34
2022-09-14T05:42:04.912Z,1008.34
2022-09-14T05:42:35.438Z,1008.35
2022-09-14T05:43:06.438Z,1008.36
2022-09-14T05:43:36.963Z,1008.36
2022-09-14T05:44:08.017Z,1008.37
2022-09-14T05:44:38.550Z,1008.38
2022-09-14T05:45:09.049Z,1008.36
2022-09-14T05:45:40.075Z,1008.34
2022-09-14T05:46:11.193Z,1008.33
2022-09-14T05:46:41.792Z,1008.34
2022-09-14T05:47:12.277Z,1008.34
2022-09-14T05:47:43.296Z,1008.35
2022-09-14T05:48:13.814Z,1008.36
2022-09-14T05:48:44.845Z,1008.38
2022-09-14T05:49:15.862Z,1008.37
2022-09-14T05:49:46.394Z,1008.38
2022-09-14T05:50:17.394Z,1008.40
2022-09-14T05:50:48.415Z,1008.41
2022-09-14T05:51:18.952Z,1008.39
2022-09-14T05:51:49.486Z,1008.40
2022-09-14T05:52:20.007Z,1008.39
2022-09-14T05:52:50.541Z,1008.39
2022-09-14T05:53:21.044Z,1008.40
2022-09-14T05:53:52.053Z,1008.38
2022-09-14T05:54:23.065Z,1008.38
2022-09-14T05:54:54.080Z,1008.37
2022-09-14T05:55:24.588Z,1008.37
2022-09-14T05:55:55.669Z,1008.37
2022-09-14T05:56:26.172Z,1008.35
2022-09-14T05:56:56.720Z,1008.37
2022-09-14T05:57:27.243Z,1008.38
2022-09-14T05:57:58.255Z,1008.40
2022-09-14T05:58:29.272Z,1008.41
2022-09-14T05:59:00.420Z,1008.42
2022-09-14T05:59:31.017Z,1008.42
2022-09-14T06:00:01.538Z,1008.42
2022-09-14T06:00:32.537Z,1008.42
2022-09-14T06:01:03.537Z,1008.41
2022-09-14T06:01:34.172Z,1008.40
2022-09-14T06:02:04.852Z,1008.42
2022-09-14T06:02:35.369Z,1008.43
2022-09-14T06:03:05.892Z,1008.43
2022-09-14T06:03:36.913Z,1008.42
2022-09-14T06:04:07.935Z,1008.43
2022-09-14T06:04:38.481Z,1008.43
2022-09-14T06:05:09.073Z,1008.46
2022-09-14T06:05:39.658Z,1008.46
2022-09-14T06:06:10.188Z,1008.47
2022-09-14T06:06:41.230Z,1008.47
2022-09-14T06:07:19.178Z,1008.46
2022-09-14T06:07:42.453Z,1008.45
2022-09-14T06:08:13.455Z,1008.44
2022-09-14T06:08:43.982Z,1008.45
2022-09-14T06:09:15.016Z,1008.44
2022-09-14T06:09:45.573Z,1008.43
2022-09-14T06:10:16.087Z,1008.44